KFTY/FTY METAR and TAF weather

Enter ICAO airport designator
Station Type Date Time Source
KFTY METAR 2019/12/10 05:53 UTC NOAA

KFTY 100553Z 18005KT 10SM BKN023 OVC030 16/12 A2997 RMK AO2 SLP145 T01610122 10161 20117 58010


Station Type Date Time Source
KFTY Decoded METAR 2019/12/10 05:53 UTC NOAA

ATLANTA FULTON COUNTY AIRPORT , GA, United States (KFTY) 33-47N 84-31W 263M
Dec 10, 2019 - 12:53 AM EST / 2019.12.10 0553 UTC
Wind: from the S (180 degrees) at 6 MPH (5 KT):0
Visibility: 10 mile(s):0
Sky conditions: overcast
Temperature: 61.0 F (16.1 C)
Dew Point: 54.0 F (12.2 C)
Relative Humidity: 77%
Pressure (altimeter): 29.97 in. Hg (1014 hPa)
Pressure tendency: 0.03 inches (1.0 hPa) lower than three hours ago
ob: KFTY 100553Z 18005KT 10SM BKN023 OVC030 16/12 A2997 RMK AO2 SLP145 T01610122 10161 20117 58010
cycle: 6

Station Type Date Time Source
KFTY TAF 2019/12/10 06:33 UTC NOAA

TAF KFTY 100529Z 1006/1106 VRB03KT P6SM OVC025
FM100800 19004KT P6SM SCT010 OVC025
FM101000 20006KT 6SM BR VCSH OVC007
FM101400 22007KT P6SM VCSH OVC008 PROB30 1015/1017 4SM -RA BR
FM101700 32010KT P6SM -RA OVC010
FM110000 33012KT P6SM -SHRA SCT012 OVC020

Example: see airport list